createdAt,value
2017-09-06T00:00:00.330Z,1007.83
2017-09-06T00:01:00.309Z,1007.8
2017-09-06T00:02:00.302Z,1007.79
2017-09-06T00:03:00.284Z,1007.8
2017-09-06T00:04:00.269Z,1007.83
2017-09-06T00:05:00.266Z,1007.8
2017-09-06T00:06:00.251Z,1007.77
2017-09-06T00:07:00.230Z,1007.69
2017-09-06T00:08:00.222Z,1007.71
2017-09-06T00:09:00.208Z,1007.7
2017-09-06T00:10:00.199Z,1007.75
2017-09-06T00:11:00.181Z,1007.73
2017-09-06T00:12:00.164Z,1007.71
2017-09-06T00:13:00.156Z,1007.71
2017-09-06T00:14:00.141Z,1007.73
2017-09-06T00:15:00.130Z,1007.72
2017-09-06T00:16:00.111Z,1007.71
2017-09-06T00:17:00.101Z,1007.74
2017-09-06T00:18:00.092Z,1007.74
2017-09-06T00:19:00.072Z,1007.72
2017-09-06T00:20:00.062Z,1007.67
2017-09-06T00:21:00.047Z,1007.65
2017-09-06T00:22:00.031Z,1007.68
2017-09-06T00:23:00.054Z,1007.64
2017-09-06T00:24:00.005Z,1007.66
2017-09-06T00:24:59.991Z,1007.64
2017-09-06T00:25:59.980Z,1007.64
2017-09-06T00:26:59.980Z,1007.62
2017-09-06T00:27:59.954Z,1007.59
2017-09-06T00:28:59.940Z,1007.56
2017-09-06T00:29:59.932Z,1007.58
2017-09-06T00:30:59.912Z,1007.59
2017-09-06T00:31:59.902Z,1007.56
2017-09-06T00:32:59.884Z,1007.57
2017-09-06T00:33:59.874Z,1007.58
2017-09-06T00:34:59.863Z,1007.57
2017-09-06T00:35:59.848Z,1007.53
2017-09-06T00:36:59.832Z,1007.52
2017-09-06T00:37:59.823Z,1007.5
2017-09-06T00:38:59.811Z,1007.47
2017-09-06T00:39:59.790Z,1007.44
2017-09-06T00:40:59.782Z,1007.41
2017-09-06T00:41:59.769Z,1007.41
2017-09-06T00:42:59.747Z,1007.4
2017-09-06T00:43:59.742Z,1007.37
2017-09-06T00:44:59.730Z,1007.36
2017-09-06T00:45:59.710Z,1007.36
2017-09-06T00:46:59.699Z,1007.36
2017-09-06T00:47:59.684Z,1007.38
2017-09-06T00:48:59.673Z,1007.35
2017-09-06T00:49:59.660Z,1007.36
2017-09-06T00:50:59.649Z,1007.37
2017-09-06T00:51:59.634Z,1007.35
2017-09-06T00:52:59.619Z,1007.33
2017-09-06T00:53:59.603Z,1007.36
2017-09-06T00:54:59.590Z,1007.34
2017-09-06T00:55:59.576Z,1007.31
2017-09-06T00:56:59.561Z,1007.33
2017-09-06T00:57:59.549Z,1007.33
2017-09-06T00:58:59.533Z,1007.28
2017-09-06T00:59:59.522Z,1007.3
2017-09-06T01:00:59.509Z,1007.29
2017-09-06T01:01:59.501Z,1007.31
2017-09-06T01:02:59.478Z,1007.31
2017-09-06T01:03:59.470Z,1007.28
2017-09-06T01:04:59.451Z,1007.28
2017-09-06T01:05:59.437Z,1007.28
2017-09-06T01:06:59.428Z,1007.28
2017-09-06T01:07:59.410Z,1007.26
2017-09-06T01:08:59.400Z,1007.25
2017-09-06T01:09:59.384Z,1007.25
2017-09-06T01:10:59.370Z,1007.24
2017-09-06T01:11:59.359Z,1007.24
2017-09-06T01:12:59.342Z,1007.27
2017-09-06T01:13:59.448Z,1007.22
2017-09-06T01:14:59.316Z,1007.21
2017-09-06T01:15:59.300Z,1007.22
2017-09-06T01:16:59.289Z,1007.2
2017-09-06T01:17:59.374Z,1007.18
2017-09-06T01:18:59.262Z,1007.17
2017-09-06T01:19:59.261Z,1007.16
2017-09-06T01:20:59.231Z,1007.12
2017-09-06T01:21:59.219Z,1007.13
2017-09-06T01:22:59.209Z,1007.15
2017-09-06T01:23:59.192Z,1007.1
2017-09-06T01:24:59.180Z,1007.04
2017-09-06T01:25:59.166Z,1007.13
2017-09-06T01:26:59.151Z,1007.09
2017-09-06T01:27:59.138Z,1007.06
2017-09-06T01:28:59.131Z,1007.06
2017-09-06T01:29:59.166Z,1007.03
2017-09-06T01:30:59.102Z,1007.03
2017-09-06T01:31:59.131Z,1007.07
2017-09-06T01:32:59.068Z,1007.04
2017-09-06T01:33:59.103Z,1007.07
2017-09-06T01:34:59.037Z,1007.07
2017-09-06T01:35:59.027Z,1007.07
2017-09-06T01:36:59.009Z,1007.09
2017-09-06T01:37:58.997Z,1007.06
2017-09-06T01:38:58.985Z,1007.08
2017-09-06T01:39:58.969Z,1007.05
2017-09-06T01:40:58.957Z,1007.06
2017-09-06T01:41:58.941Z,1007.09
2017-09-06T01:42:58.926Z,1007.07
2017-09-06T01:43:58.915Z,1007.09
2017-09-06T01:44:58.899Z,1007.04
2017-09-06T01:45:58.888Z,1007.05
2017-09-06T01:46:58.872Z,1007.03
2017-09-06T01:47:58.859Z,1007.03
2017-09-06T01:48:58.849Z,1007.02
2017-09-06T01:49:58.829Z,1007.03
2017-09-06T01:50:58.819Z,1007.06
2017-09-06T01:51:58.811Z,1007.07
2017-09-06T01:52:58.787Z,1007
2017-09-06T01:53:58.779Z,1007.03
2017-09-06T01:54:58.759Z,1007.06
2017-09-06T01:55:58.753Z,1007.05
2017-09-06T01:56:58.741Z,1007.01
2017-09-06T01:57:58.719Z,1007.02
2017-09-06T01:58:58.710Z,1007.02
2017-09-06T01:59:58.691Z,1006.98
2017-09-06T02:00:58.681Z,1006.97
2017-09-06T02:01:58.664Z,1006.96
2017-09-06T02:02:58.650Z,1006.93
2017-09-06T02:03:58.636Z,1006.92
2017-09-06T02:04:58.619Z,1006.92
2017-09-06T02:05:58.610Z,1006.91
2017-09-06T02:06:58.600Z,1006.92
2017-09-06T02:07:58.580Z,1006.92
2017-09-06T02:08:58.568Z,1006.91
2017-09-06T02:09:58.550Z,1006.92
2017-09-06T02:10:58.542Z,1006.9
2017-09-06T02:11:58.528Z,1006.88
2017-09-06T02:12:58.506Z,1006.87
2017-09-06T02:13:58.499Z,1006.87
2017-09-06T02:14:58.480Z,1006.88
2017-09-06T02:15:58.469Z,1006.88
2017-09-06T02:16:58.452Z,1006.84
2017-09-06T02:17:58.439Z,1006.81
2017-09-06T02:18:58.431Z,1006.84
2017-09-06T02:19:58.412Z,1006.82
2017-09-06T02:20:58.394Z,1006.78
2017-09-06T02:21:58.379Z,1006.8
2017-09-06T02:22:58.369Z,1006.75
2017-09-06T02:23:58.354Z,1006.74
2017-09-06T02:24:58.336Z,1006.76
2017-09-06T02:25:58.321Z,1006.73
2017-09-06T02:26:58.311Z,1006.71
2017-09-06T02:27:58.297Z,1006.67
2017-09-06T02:28:58.288Z,1006.69
2017-09-06T02:29:58.266Z,1006.63
2017-09-06T02:30:58.257Z,1006.62
2017-09-06T02:31:58.239Z,1006.62
2017-09-06T02:32:58.222Z,1006.57
2017-09-06T02:33:58.209Z,1006.56
2017-09-06T02:34:58.195Z,1006.54
2017-09-06T02:35:58.192Z,1006.5
2017-09-06T02:36:58.166Z,1006.41
2017-09-06T02:37:58.151Z,1006.4
2017-09-06T02:38:58.142Z,1006.36
2017-09-06T02:39:58.131Z,1006.35
2017-09-06T02:40:58.110Z,1006.27
2017-09-06T02:41:58.098Z,1006.26
2017-09-06T02:42:58.111Z,1006.22
2017-09-06T02:43:58.071Z,1006.24
2017-09-06T02:44:58.050Z,1006.23
2017-09-06T02:45:58.041Z,1006.26
2017-09-06T02:46:58.031Z,1006.28
2017-09-06T02:47:58.008Z,1006.24
2017-09-06T02:48:58.001Z,1006.22
2017-09-06T02:49:57.976Z,1006.19
2017-09-06T02:50:57.962Z,1006.26
2017-09-06T02:51:57.950Z,1006.27
2017-09-06T02:52:57.941Z,1006.27
2017-09-06T02:53:57.918Z,1006.25
2017-09-06T02:54:57.913Z,1006.21
2017-09-06T02:55:57.902Z,1006.25
2017-09-06T02:56:57.882Z,1006.27
2017-09-06T02:57:57.869Z,1006.25
2017-09-06T02:58:57.851Z,1006.23
2017-09-06T02:59:57.835Z,1006.25
2017-09-06T03:00:57.916Z,1006.24
2017-09-06T03:01:57.807Z,1006.28
2017-09-06T03:02:57.791Z,1006.26
2017-09-06T03:03:57.781Z,1006.24
2017-09-06T03:04:57.759Z,1006.24
2017-09-06T03:05:57.751Z,1006.24
2017-09-06T03:06:57.781Z,1006.24
2017-09-06T03:07:57.720Z,1006.21
2017-09-06T03:08:57.710Z,1006.2
2017-09-06T03:09:57.689Z,1006.18
2017-09-06T03:10:57.682Z,1006.19
2017-09-06T03:11:57.657Z,1006.17
2017-09-06T03:12:57.647Z,1006.19
2017-09-06T03:13:57.629Z,1006.17
2017-09-06T03:14:57.662Z,1006.14
2017-09-06T03:15:57.599Z,1006.13
2017-09-06T03:16:57.633Z,1006.07
2017-09-06T03:17:57.570Z,1006.08
2017-09-06T03:18:57.561Z,1006.1
2017-09-06T03:19:57.538Z,1006.1
2017-09-06T03:20:57.532Z,1006.07
2017-09-06T03:21:57.510Z,1006.08
2017-09-06T03:22:57.494Z,1006.08
2017-09-06T03:23:57.479Z,1006.07
2017-09-06T03:24:57.468Z,1006.05
2017-09-06T03:25:57.449Z,1005.99
2017-09-06T03:26:57.439Z,1005.98
2017-09-06T03:27:57.420Z,1006.03
2017-09-06T03:28:57.411Z,1006.05
2017-09-06T03:29:57.391Z,1005.98
2017-09-06T03:30:57.374Z,1005.99
2017-09-06T03:31:57.358Z,1005.94
2017-09-06T03:32:57.348Z,1005.96
2017-09-06T03:33:57.328Z,1005.99
2017-09-06T03:34:57.316Z,1005.94
2017-09-06T03:35:57.301Z,1005.92
2017-09-06T03:36:57.289Z,1005.91
2017-09-06T03:37:57.271Z,1005.9
2017-09-06T03:38:57.255Z,1005.88
2017-09-06T03:39:57.239Z,1005.9
2017-09-06T03:40:57.226Z,1005.86
2017-09-06T03:41:57.218Z,1005.83
2017-09-06T03:42:57.198Z,1005.84
2017-09-06T03:43:57.181Z,1005.82
2017-09-06T03:44:57.168Z,1005.82
2017-09-06T03:45:57.154Z,1005.83
2017-09-06T03:46:57.138Z,1005.83
2017-09-06T03:47:57.122Z,1005.82
2017-09-06T03:48:57.108Z,1005.81
2017-09-06T03:49:57.100Z,1005.82
2017-09-06T03:50:57.079Z,1005.78
2017-09-06T03:51:57.067Z,1005.84
2017-09-06T03:52:57.049Z,1005.77
2017-09-06T03:53:57.042Z,1005.76
2017-09-06T03:54:57.021Z,1005.74
2017-09-06T03:55:57.013Z,1005.74
2017-09-06T03:56:56.991Z,1005.7
2017-09-06T03:57:56.978Z,1005.74
2017-09-06T03:58:56.961Z,1005.7
2017-09-06T03:59:56.946Z,1005.68
2017-09-06T04:00:56.932Z,1005.7
2017-09-06T04:01:56.921Z,1005.69
2017-09-06T04:02:56.904Z,1005.71
2017-09-06T04:03:56.888Z,1005.7
2017-09-06T04:04:56.872Z,1005.69
2017-09-06T04:05:56.858Z,1005.67
2017-09-06T04:06:56.848Z,1005.66
2017-09-06T04:07:56.835Z,1005.66
2017-09-06T04:08:56.816Z,1005.64
2017-09-06T04:09:56.798Z,1005.67
2017-09-06T04:10:56.789Z,1005.64
2017-09-06T04:11:56.771Z,1005.64
2017-09-06T04:12:56.759Z,1005.63
2017-09-06T04:13:56.740Z,1005.6
2017-09-06T04:14:56.731Z,1005.59
2017-09-06T04:15:56.718Z,1005.61
2017-09-06T04:16:56.700Z,1005.6
2017-09-06T04:17:56.681Z,1005.56
2017-09-06T04:18:56.668Z,1005.57
2017-09-06T04:19:56.662Z,1005.58
2017-09-06T04:20:56.642Z,1005.54
2017-09-06T04:21:56.637Z,1005.55
2017-09-06T04:22:56.612Z,1005.53
2017-09-06T04:23:56.606Z,1005.5
2017-09-06T04:24:56.584Z,1005.55
2017-09-06T04:25:56.566Z,1005.54
2017-09-06T04:26:56.554Z,1005.48
2017-09-06T04:27:56.539Z,1005.47
2017-09-06T04:28:56.523Z,1005.48
2017-09-06T04:29:56.509Z,1005.52
2017-09-06T04:30:56.496Z,1005.47
2017-09-06T04:31:56.480Z,1005.45
2017-09-06T04:32:56.465Z,1005.46
2017-09-06T04:33:56.449Z,1005.48
2017-09-06T04:34:56.439Z,1005.48
2017-09-06T04:35:56.421Z,1005.46
2017-09-06T04:36:56.412Z,1005.44
2017-09-06T04:37:56.395Z,1005.45
2017-09-06T04:38:56.379Z,1005.41
2017-09-06T04:39:56.368Z,1005.45
2017-09-06T04:40:56.350Z,1005.42
2017-09-06T04:41:56.336Z,1005.44
2017-09-06T04:42:56.330Z,1005.42
2017-09-06T04:43:56.308Z,1005.41
2017-09-06T04:44:56.289Z,1005.41
2017-09-06T04:45:56.279Z,1005.33
2017-09-06T04:46:56.261Z,1005.35
2017-09-06T04:47:56.245Z,1005.38
2017-09-06T04:48:56.234Z,1005.35
2017-09-06T04:49:56.219Z,1005.35
2017-09-06T04:50:56.204Z,1005.34
2017-09-06T04:51:56.191Z,1005.34
2017-09-06T04:52:56.183Z,1005.34
2017-09-06T04:53:56.170Z,1005.35
2017-09-06T04:54:56.145Z,1005.33
2017-09-06T04:55:56.130Z,1005.33
2017-09-06T04:56:56.122Z,1005.34
2017-09-06T04:57:56.098Z,1005.37
2017-09-06T04:58:56.088Z,1005.34
2017-09-06T04:59:56.070Z,1005.3
2017-09-06T05:00:56.061Z,1005.28
2017-09-06T05:01:56.038Z,1005.27
2017-09-06T05:02:56.027Z,1005.26
2017-09-06T05:03:56.008Z,1005.32
2017-09-06T05:04:55.994Z,1005.29
2017-09-06T05:05:55.987Z,1005.27
2017-09-06T05:06:55.969Z,1005.28
2017-09-06T05:07:55.954Z,1005.26
2017-09-06T05:08:55.934Z,1005.26
2017-09-06T05:09:55.927Z,1005.28
2017-09-06T05:10:55.908Z,1005.29
2017-09-06T05:11:55.898Z,1005.26
2017-09-06T05:12:55.879Z,1005.27
2017-09-06T05:13:55.868Z,1005.24
2017-09-06T05:14:55.847Z,1005.28
2017-09-06T05:15:55.837Z,1005.24
2017-09-06T05:16:55.820Z,1005.21
2017-09-06T05:17:55.806Z,1005.19
2017-09-06T05:18:55.802Z,1005.2
2017-09-06T05:19:55.776Z,1005.24
2017-09-06T05:20:55.769Z,1005.2
2017-09-06T05:21:55.748Z,1005.21
2017-09-06T05:22:55.736Z,1005.21
2017-09-06T05:23:55.721Z,1005.2
2017-09-06T05:24:55.729Z,1005.22
2017-09-06T05:25:55.691Z,1005.2
2017-09-06T05:26:55.681Z,1005.21
2017-09-06T05:27:55.660Z,1005.24
2017-09-06T05:28:55.650Z,1005.2
2017-09-06T05:29:55.635Z,1005.19
2017-09-06T05:30:55.615Z,1005.23
2017-09-06T05:31:55.634Z,1005.18
2017-09-06T05:32:55.586Z,1005.14
2017-09-06T05:33:55.569Z,1005.12
2017-09-06T05:34:55.557Z,1005.1
2017-09-06T05:35:55.549Z,1005.12
2017-09-06T05:36:55.527Z,1005.12
2017-09-06T05:37:55.517Z,1005.14
2017-09-06T05:38:55.501Z,1005.1
2017-09-06T05:39:55.483Z,1005.09
2017-09-06T05:40:55.469Z,1005.12
2017-09-06T05:41:55.459Z,1005.11
2017-09-06T05:42:55.440Z,1005.1
2017-09-06T05:43:55.432Z,1005.12
2017-09-06T05:44:55.406Z,1005.12
2017-09-06T05:45:55.399Z,1005.15
2017-09-06T05:46:55.380Z,1005.14
2017-09-06T05:47:55.368Z,1005.15
2017-09-06T05:48:55.350Z,1005.18
2017-09-06T05:49:55.347Z,1005.2
2017-09-06T05:50:55.319Z,1005.2
2017-09-06T05:51:55.312Z,1005.21
2017-09-06T05:52:55.300Z,1005.24
2017-09-06T05:53:55.279Z,1005.23
2017-09-06T05:54:55.260Z,1005.22
2017-09-06T05:55:55.245Z,1005.24
2017-09-06T05:56:55.238Z,1005.26
2017-09-06T05:57:55.256Z,1005.25
2017-09-06T05:58:55.206Z,1005.25
2017-09-06T05:59:55.191Z,1005.23
2017-09-06T06:00:55.177Z,1005.26
2017-09-06T06:01:55.168Z,1005.27
2017-09-06T06:02:55.147Z,1005.29
2017-09-06T06:03:55.133Z,1005.28
2017-09-06T06:04:55.120Z,1005.21
2017-09-06T06:05:55.112Z,1005.25
2017-09-06T06:06:55.092Z,1005.24
2017-09-06T06:07:55.075Z,1005.28
2017-09-06T06:08:55.056Z,1005.23
2017-09-06T06:09:55.050Z,1005.23
2017-09-06T06:10:55.037Z,1005.22
2017-09-06T06:11:55.022Z,1005.21
2017-09-06T06:12:54.998Z,1005.18
2017-09-06T06:13:54.989Z,1005.22
2017-09-06T06:14:54.968Z,1005.2
2017-09-06T06:15:54.957Z,1005.21
2017-09-06T06:16:54.938Z,1005.18
2017-09-06T06:17:54.928Z,1005.13
2017-09-06T06:18:54.918Z,1005.15
2017-09-06T06:19:54.899Z,1005.12
2017-09-06T06:20:54.889Z,1005.16
2017-09-06T06:21:54.870Z,1005.09
2017-09-06T06:22:54.859Z,1005.17
2017-09-06T06:23:54.837Z,1005.16
2017-09-06T06:24:54.827Z,1005.14
2017-09-06T06:25:54.811Z,1005.17
2017-09-06T06:26:54.798Z,1005.21
2017-09-06T06:27:54.780Z,1005.21
2017-09-06T06:28:54.769Z,1005.19
2017-09-06T06:29:54.749Z,1005.17
2017-09-06T06:30:54.739Z,1005.14
2017-09-06T06:31:54.725Z,1005.2
2017-09-06T06:32:54.712Z,1005.17
2017-09-06T06:33:54.697Z,1005.17
2017-09-06T06:34:54.679Z,1005.19
2017-09-06T06:35:54.666Z,1005.17
2017-09-06T06:36:54.656Z,1005.22
2017-09-06T06:37:54.636Z,1005.2
2017-09-06T06:38:54.624Z,1005.16
2017-09-06T06:39:54.607Z,1005.14
2017-09-06T06:40:54.599Z,1005.17
2017-09-06T06:41:54.580Z,1005.13
2017-09-06T06:42:54.570Z,1005.15
2017-09-06T06:43:54.544Z,1005.12
2017-09-06T06:44:54.534Z,1005.19
2017-09-06T06:45:54.524Z,1005.14
2017-09-06T06:46:54.507Z,1005.13
2017-09-06T06:47:54.486Z,1005.17
2017-09-06T06:48:54.477Z,1005.18
2017-09-06T06:49:54.457Z,1005.18
2017-09-06T06:50:54.447Z,1005.16
2017-09-06T06:51:54.430Z,1005.13
2017-09-06T06:52:54.416Z,1005.21
2017-09-06T06:53:54.408Z,1005.16
2017-09-06T06:54:54.390Z,1005.17
2017-09-06T06:55:54.384Z,1005.15
2017-09-06T06:56:54.361Z,1005.11
2017-09-06T06:57:54.353Z,1005.2
2017-09-06T06:58:54.338Z,1005.17
2017-09-06T06:59:54.318Z,1005.21
2017-09-06T07:00:54.300Z,1005.16
2017-09-06T07:01:54.290Z,1005.15
2017-09-06T07:02:54.278Z,1005.18
2017-09-06T07:03:54.263Z,1005.13
2017-09-06T07:04:54.245Z,1005.19
2017-09-06T07:05:54.224Z,1005.17
2017-09-06T07:06:54.461Z,1005.14
2017-09-06T07:07:54.200Z,1005.21
2017-09-06T07:08:54.183Z,1005.18
2017-09-06T07:09:54.170Z,1005.2
2017-09-06T07:10:54.155Z,1005.16
2017-09-06T07:11:54.138Z,1005.18
2017-09-06T07:12:54.122Z,1005.16
2017-09-06T07:13:54.109Z,1005.18
2017-09-06T07:14:54.097Z,1005.18
2017-09-06T07:15:54.090Z,1005.23
2017-09-06T07:16:54.069Z,1005.19
2017-09-06T07:17:54.054Z,1005.24
2017-09-06T07:18:54.034Z,1005.21
2017-09-06T07:19:54.017Z,1005.2
2017-09-06T07:20:54.007Z,1005.22
2017-09-06T07:21:54.002Z,1005.22
2017-09-06T07:22:53.978Z,1005.21
2017-09-06T07:23:53.962Z,1005.19
2017-09-06T07:24:53.949Z,1005.24
2017-09-06T07:25:53.937Z,1005.22
2017-09-06T07:26:53.918Z,1005.22
2017-09-06T07:27:53.906Z,1005.27
2017-09-06T07:28:53.893Z,1005.25
2017-09-06T07:29:53.877Z,1005.22
2017-09-06T07:30:53.857Z,1005.2
2017-09-06T07:31:53.858Z,1005.24
2017-09-06T07:32:53.835Z,1005.24
2017-09-06T07:33:53.821Z,1005.21
2017-09-06T07:34:53.808Z,1005.2
2017-09-06T07:35:53.789Z,1005.2
2017-09-06T07:36:53.773Z,1005.23
2017-09-06T07:37:53.758Z,1005.17
2017-09-06T07:38:53.751Z,1005.19
2017-09-06T07:39:53.739Z,1005.2
2017-09-06T07:40:53.717Z,1005.16
2017-09-06T07:41:53.707Z,1005.17
2017-09-06T07:42:53.691Z,1005.14
2017-09-06T07:43:53.674Z,1005.14
2017-09-06T07:44:53.671Z,1005.14
2017-09-06T07:45:53.646Z,1005.12
2017-09-06T07:46:53.634Z,1005.14
2017-09-06T07:47:53.621Z,1005.14
2017-09-06T07:48:53.607Z,1005.18
2017-09-06T07:49:53.598Z,1005.14
2017-09-06T07:50:53.579Z,1005.18
2017-09-06T07:51:53.563Z,1005.14
2017-09-06T07:52:53.552Z,1005.2
2017-09-06T07:53:53.535Z,1005.2
2017-09-06T07:54:53.523Z,1005.17
2017-09-06T07:55:53.509Z,1005.14
2017-09-06T07:56:53.493Z,1005.2
2017-09-06T07:57:53.487Z,1005.21
2017-09-06T07:58:53.462Z,1005.23
2017-09-06T07:59:53.450Z,1005.29
2017-09-06T08:00:53.431Z,1005.31
2017-09-06T08:01:53.443Z,1005.35
2017-09-06T08:02:53.405Z,1005.36
2017-09-06T08:03:53.392Z,1005.34
2017-09-06T08:04:53.375Z,1005.45
2017-09-06T08:05:53.363Z,1005.44
2017-09-06T08:06:53.352Z,1005.5
2017-09-06T08:07:53.332Z,1005.5
2017-09-06T08:08:53.316Z,1005.46
2017-09-06T08:09:53.308Z,1005.51
2017-09-06T08:10:53.287Z,1005.51
2017-09-06T08:11:53.273Z,1005.55
2017-09-06T08:12:53.268Z,1005.52
2017-09-06T08:13:53.241Z,1005.58
2017-09-06T08:14:53.229Z,1005.58
2017-09-06T08:15:53.216Z,1005.58
2017-09-06T08:16:53.199Z,1005.58
2017-09-06T08:17:53.186Z,1005.65
2017-09-06T08:18:53.171Z,1005.65
2017-09-06T08:19:53.166Z,1005.58
2017-09-06T08:20:53.147Z,1005.59
2017-09-06T08:21:53.128Z,1005.61
2017-09-06T08:22:53.114Z,1005.64
2017-09-06T08:23:53.098Z,1005.74
2017-09-06T08:24:53.086Z,1005.66
2017-09-06T08:25:53.074Z,1005.66
2017-09-06T08:26:53.056Z,1005.68
2017-09-06T08:27:53.040Z,1005.67
2017-09-06T08:28:53.031Z,1005.72
2017-09-06T08:29:53.009Z,1005.7
2017-09-06T08:30:52.997Z,1005.8
2017-09-06T08:31:52.981Z,1005.83
2017-09-06T08:32:52.964Z,1005.79
2017-09-06T08:33:52.961Z,1005.9
2017-09-06T08:34:52.938Z,1005.93
2017-09-06T08:35:52.928Z,1005.82
2017-09-06T08:36:52.911Z,1005.84
2017-09-06T08:37:52.892Z,1005.88
2017-09-06T08:38:52.888Z,1005.84
2017-09-06T08:39:52.867Z,1005.92
2017-09-06T08:40:52.851Z,1005.87
2017-09-06T08:41:52.834Z,1005.89
2017-09-06T08:42:52.828Z,1005.96
2017-09-06T08:43:52.806Z,1005.97
2017-09-06T08:44:52.792Z,1005.97
2017-09-06T08:45:52.775Z,1006.01
2017-09-06T08:46:52.777Z,1006.05
2017-09-06T08:47:52.745Z,1006.07
2017-09-06T08:48:52.733Z,1006.44
2017-09-06T08:49:52.723Z,1006.09
2017-09-06T08:50:52.704Z,1006.19
2017-09-06T08:51:52.700Z,1006.26
2017-09-06T08:52:52.681Z,1006.23
2017-09-06T08:53:52.662Z,1006.27
2017-09-06T08:54:52.656Z,1006.26
2017-09-06T08:55:52.632Z,1006.34
2017-09-06T08:56:52.620Z,1006.39
2017-09-06T08:57:52.601Z,1006.34
2017-09-06T08:58:52.588Z,1006.42
2017-09-06T08:59:52.563Z,1006.49
2017-09-06T09:00:52.550Z,1006.49
2017-09-06T09:01:52.537Z,1006.46
2017-09-06T09:02:52.523Z,1006.4
2017-09-06T09:03:52.510Z,1006.43
2017-09-06T09:04:52.745Z,1006.48
2017-09-06T09:05:52.484Z,1006.49
2017-09-06T09:06:52.465Z,1006.52
2017-09-06T09:07:52.447Z,1006.52
2017-09-06T09:08:52.436Z,1006.53
2017-09-06T09:09:52.427Z,1006.51
2017-09-06T09:10:52.409Z,1006.69
2017-09-06T09:11:52.388Z,1006.77
2017-09-06T09:12:52.371Z,1006.55
2017-09-06T09:13:52.357Z,1006.68
2017-09-06T09:14:52.341Z,1006.63
2017-09-06T09:15:52.328Z,1006.71
2017-09-06T09:16:52.310Z,1006.64
2017-09-06T09:17:52.297Z,1006.67
2017-09-06T09:18:52.286Z,1006.8
2017-09-06T09:19:52.270Z,1006.79
2017-09-06T09:20:52.248Z,1006.78
2017-09-06T09:21:52.240Z,1006.79
2017-09-06T09:22:52.225Z,1006.82
2017-09-06T09:23:52.208Z,1006.85
2017-09-06T09:24:52.193Z,1006.81
2017-09-06T09:25:52.178Z,1006.88
2017-09-06T09:26:52.158Z,1006.99
2017-09-06T09:27:52.149Z,1006.9
2017-09-06T09:28:52.128Z,1007.04
2017-09-06T09:29:52.115Z,1006.97
2017-09-06T09:30:52.098Z,1006.85
2017-09-06T09:31:52.081Z,1007.01
2017-09-06T09:32:52.074Z,1007
2017-09-06T09:33:52.058Z,1006.95
2017-09-06T09:34:52.038Z,1006.97
2017-09-06T09:35:52.023Z,1006.99
2017-09-06T09:36:52.008Z,1007.05
2017-09-06T09:37:52.029Z,1007.11
2017-09-06T09:38:51.980Z,1006.95
2017-09-06T09:39:51.965Z,1006.98
2017-09-06T09:40:51.950Z,1007.05
2017-09-06T09:41:51.933Z,1007.02
2017-09-06T09:42:51.917Z,1007.08
2017-09-06T09:43:51.908Z,1007.09
2017-09-06T09:44:51.893Z,1007.09
2017-09-06T09:45:51.878Z,1007.05
2017-09-06T09:46:51.868Z,1007.13
2017-09-06T09:47:51.850Z,1007.19
2017-09-06T09:48:51.839Z,1007.2
2017-09-06T09:49:51.825Z,1007.15
2017-09-06T09:50:51.803Z,1007.21
2017-09-06T09:51:51.789Z,1007.11
2017-09-06T09:52:51.785Z,1007.09
2017-09-06T09:53:51.758Z,1007.16
2017-09-06T09:54:51.912Z,1007.19
2017-09-06T09:55:51.730Z,1007.19
2017-09-06T09:56:51.747Z,1007.3
2017-09-06T09:57:51.702Z,1007.1
2017-09-06T09:58:51.701Z,1007.24
2017-09-06T09:59:51.731Z,1007.16
2017-09-06T10:00:51.666Z,1007.22
2017-09-06T10:01:51.645Z,1007.24
2017-09-06T10:02:51.638Z,1007.23
2017-09-06T10:03:51.863Z,1007.12
2017-09-06T10:04:51.604Z,1007.17
2017-09-06T10:05:51.595Z,1007.2
2017-09-06T10:06:51.579Z,1007.22
2017-09-06T10:07:51.568Z,1007.18
2017-09-06T10:08:51.550Z,1007.25
2017-09-06T10:09:51.535Z,1007.18
2017-09-06T10:10:51.523Z,1007.25
2017-09-06T10:11:51.507Z,1007.22
2017-09-06T10:12:51.498Z,1007.43
2017-09-06T10:13:51.479Z,1007.32
2017-09-06T10:14:51.474Z,1007.26
2017-09-06T10:15:51.462Z,1007.28
2017-09-06T10:16:51.441Z,1007.31
2017-09-06T10:17:51.438Z,1007.35
2017-09-06T10:18:51.411Z,1007.38
2017-09-06T10:19:51.398Z,1007.24
2017-09-06T10:20:51.386Z,1007.39
2017-09-06T10:21:51.379Z,1007.19
2017-09-06T10:22:51.357Z,1007.2
2017-09-06T10:23:51.352Z,1007.31
2017-09-06T10:24:51.329Z,1007.33
2017-09-06T10:25:51.319Z,1007.32
2017-09-06T10:26:51.305Z,1007.22
2017-09-06T10:27:51.300Z,1007.3
2017-09-06T10:28:51.283Z,1007.26
2017-09-06T10:29:51.269Z,1007.25
2017-09-06T10:30:51.252Z,1007.15
2017-09-06T10:31:51.242Z,1007.23
2017-09-06T10:32:51.224Z,1007.26
2017-09-06T10:33:51.222Z,1007.38
2017-09-06T10:34:51.209Z,1007.35
2017-09-06T10:35:51.193Z,1007.32
2017-09-06T10:36:51.431Z,1007.33
2017-09-06T10:37:51.171Z,1007.29
2017-09-06T10:38:51.156Z,1007.37
2017-09-06T10:39:51.374Z,1007.31
2017-09-06T10:40:51.126Z,1007.38
2017-09-06T10:41:51.121Z,1007.38
2017-09-06T10:42:51.105Z,1007.36
2017-09-06T10:43:51.088Z,1007.37
2017-09-06T10:44:51.082Z,1007.44
2017-09-06T10:45:51.066Z,1007.41
2017-09-06T10:46:51.060Z,1007.45
2017-09-06T10:47:51.045Z,1007.36
2017-09-06T10:48:51.031Z,1007.44
2017-09-06T10:49:51.021Z,1007.43
2017-09-06T10:50:51.009Z,1007.57
2017-09-06T10:51:50.999Z,1007.42
2017-09-06T10:52:50.998Z,1007.43
2017-09-06T10:53:50.989Z,1007.51
2017-09-06T10:54:50.963Z,1007.58
2017-09-06T10:55:50.952Z,1007.39
2017-09-06T10:56:50.939Z,1007.4
2017-09-06T10:57:50.932Z,1007.5
2017-09-06T10:58:50.921Z,1007.53
2017-09-06T10:59:50.910Z,1007.42
2017-09-06T11:00:50.898Z,1007.38
2017-09-06T11:01:50.891Z,1007.49
2017-09-06T11:02:50.882Z,1007.32
2017-09-06T11:03:50.868Z,1007.34
2017-09-06T11:04:50.862Z,1007.31
2017-09-06T11:05:50.849Z,1007.31
2017-09-06T11:06:50.843Z,1007.32
2017-09-06T11:07:50.830Z,1007.29
2017-09-06T11:08:50.819Z,1007.36
2017-09-06T11:09:50.804Z,1007.28
2017-09-06T11:10:50.794Z,1007.39
2017-09-06T11:11:50.783Z,1007.4
2017-09-06T11:12:50.779Z,1007.33
2017-09-06T11:13:50.764Z,1007.41
2017-09-06T11:14:50.750Z,1007.38
2017-09-06T11:15:50.741Z,1007.41
2017-09-06T11:16:50.725Z,1007.37
2017-09-06T11:17:50.810Z,1007.33
2017-09-06T11:18:50.702Z,1007.46
2017-09-06T11:19:50.699Z,1007.47
2017-09-06T11:20:50.689Z,1007.38
2017-09-06T11:21:50.671Z,1007.49
2017-09-06T11:22:50.668Z,1007.38
2017-09-06T11:23:50.649Z,1007.43
2017-09-06T11:24:50.640Z,1007.41
2017-09-06T11:25:50.627Z,1007.39
2017-09-06T11:26:50.615Z,1007.38
2017-09-06T11:27:50.620Z,1007.45
2017-09-06T11:28:50.600Z,1007.41
2017-09-06T11:29:50.592Z,1007.41
2017-09-06T11:30:50.585Z,1007.45
2017-09-06T11:31:50.567Z,1007.54
2017-09-06T11:32:50.554Z,1007.51
2017-09-06T11:33:50.549Z,1007.5
2017-09-06T11:34:50.530Z,1007.48
2017-09-06T11:35:50.519Z,1007.44
2017-09-06T11:36:50.509Z,1007.57
2017-09-06T11:37:50.500Z,1007.5
2017-09-06T11:38:50.488Z,1007.57
2017-09-06T11:39:50.477Z,1007.54
2017-09-06T11:40:50.471Z,1007.47
2017-09-06T11:41:50.454Z,1007.57
2017-09-06T11:42:50.441Z,1007.48
2017-09-06T11:43:50.429Z,1007.49
2017-09-06T11:44:50.418Z,1007.58
2017-09-06T11:45:50.408Z,1007.6
2017-09-06T11:46:50.410Z,1007.53
2017-09-06T11:47:50.412Z,1007.5
2017-09-06T11:48:50.378Z,1007.48
2017-09-06T11:49:50.360Z,1007.45
2017-09-06T11:50:50.350Z,1007.59
2017-09-06T11:51:50.338Z,1007.59
2017-09-06T11:52:50.337Z,1007.53
2017-09-06T11:53:50.311Z,1007.68
2017-09-06T11:54:50.303Z,1007.6
2017-09-06T11:55:50.288Z,1007.55
2017-09-06T11:56:50.278Z,1007.49
2017-09-06T11:57:50.264Z,1007.52
2017-09-06T11:58:50.249Z,1007.57
2017-09-06T11:59:50.252Z,1007.54
2017-09-06T12:00:50.229Z,1007.59
2017-09-06T12:01:50.268Z,1007.51
2017-09-06T12:02:50.201Z,1007.53
2017-09-06T12:03:50.203Z,1007.51
2017-09-06T12:04:50.191Z,1007.53
2017-09-06T12:05:50.169Z,1007.52
2017-09-06T12:06:50.169Z,1007.48
2017-09-06T12:07:50.146Z,1007.48